sensor_id;sensor_type;location;lat;lon;timestamp;pressure;altitude;pressure_sealevel;temperature;humidity
71567;BME280;59403;47.456;19.120;2024-03-06T00:01:11;100087.78;;;7.28;100.00
71567;BME280;59403;47.456;19.120;2024-03-06T00:03:38;100080.41;;;7.32;100.00
71567;BME280;59403;47.456;19.120;2024-03-06T00:06:05;100087.78;;;7.28;100.00
71567;BME280;59403;47.456;19.120;2024-03-06T00:08:32;100088.63;;;7.29;100.00
71567;BME280;59403;47.456;19.120;2024-03-06T00:10:58;100096.66;;;7.27;100.00
71567;BME280;59403;47.456;19.120;2024-03-06T00:13:25;100098.47;;;7.27;100.00
71567;BME280;59403;47.456;19.120;2024-03-06T00:15:52;100091.69;;;7.24;100.00
71567;BME280;59403;47.456;19.120;2024-03-06T00:18:18;100098.75;;;7.24;100.00
71567;BME280;59403;47.456;19.120;2024-03-06T00:20:46;100086.59;;;7.13;100.00
71567;BME280;59403;47.456;19.120;2024-03-06T00:23:13;100096.81;;;7.16;100.00
71567;BME280;59403;47.456;19.120;2024-03-06T00:25:39;100096.28;;;7.13;100.00
71567;BME280;59403;47.456;19.120;2024-03-06T00:28:06;100098.34;;;7.09;100.00
71567;BME280;59403;47.456;19.120;2024-03-06T00:30:32;100103.53;;;7.01;100.00
71567;BME280;59403;47.456;19.120;2024-03-06T00:32:59;100096.06;;;6.97;100.00
71567;BME280;59403;47.456;19.120;2024-03-06T00:35:26;100103.66;;;7.00;100.00
71567;BME280;59403;47.456;19.120;2024-03-06T00:37:55;100103.41;;;6.93;100.00
71567;BME280;59403;47.456;19.120;2024-03-06T00:40:22;100106.84;;;7.03;100.00
71567;BME280;59403;47.456;19.120;2024-03-06T00:42:48;100113.22;;;7.01;100.00
71567;BME280;59403;47.456;19.120;2024-03-06T00:45:15;100111.72;;;6.98;100.00
71567;BME280;59403;47.456;19.120;2024-03-06T00:47:42;100110.47;;;6.93;100.00
71567;BME280;59403;47.456;19.120;2024-03-06T00:50:09;100121.13;;;6.91;100.00
71567;BME280;59403;47.456;19.120;2024-03-06T00:52:36;100114.63;;;6.85;100.00
71567;BME280;59403;47.456;19.120;2024-03-06T00:55:05;100113.38;;;6.80;100.00
71567;BME280;59403;47.456;19.120;2024-03-06T00:57:32;100109.34;;;6.76;100.00
71567;BME280;59403;47.456;19.120;2024-03-06T00:59:58;100107.84;;;6.73;100.00
71567;BME280;59403;47.456;19.120;2024-03-06T01:02:25;100109.62;;;6.73;100.00
71567;BME280;59403;47.456;19.120;2024-03-06T01:04:52;100107.84;;;6.73;100.00
71567;BME280;59403;47.456;19.120;2024-03-06T01:07:19;100107.00;;;6.73;100.00
71567;BME280;59403;47.456;19.120;2024-03-06T01:09:45;100115.47;;;6.67;100.00
71567;BME280;59403;47.456;19.120;2024-03-06T01:12:13;100122.81;;;6.63;100.00
71567;BME280;59403;47.456;19.120;2024-03-06T01:14:40;100116.31;;;6.58;100.00
71567;BME280;59403;47.456;19.120;2024-03-06T01:17:07;100122.25;;;6.50;100.00
71567;BME280;59403;47.456;19.120;2024-03-06T01:19:34;100119.34;;;6.44;100.00
71567;BME280;59403;47.456;19.120;2024-03-06T01:22:01;100116.72;;;6.44;100.00
71567;BME280;59403;47.456;19.120;2024-03-06T01:24:27;100119.19;;;6.36;100.00
71567;BME280;59403;47.456;19.120;2024-03-06T01:26:54;100120.84;;;6.37;100.00
71567;BME280;59403;47.456;19.120;2024-03-06T01:29:22;100106.16;;;6.34;100.00
71567;BME280;59403;47.456;19.120;2024-03-06T01:31:48;100110.88;;;6.40;100.00
71567;BME280;59403;47.456;19.120;2024-03-06T01:34:15;100121.56;;;6.39;100.00
71567;BME280;59403;47.456;19.120;2024-03-06T01:36:42;100107.16;;;6.43;100.00
71567;BME280;59403;47.456;19.120;2024-03-06T01:39:08;100112.28;;;6.44;100.00
71567;BME280;59403;47.456;19.120;2024-03-06T01:41:35;100116.28;;;6.39;100.00
71567;BME280;59403;47.456;19.120;2024-03-06T01:44:02;100122.09;;;6.33;100.00
71567;BME280;59403;47.456;19.120;2024-03-06T01:46:30;100121.53;;;6.29;100.00
71567;BME280;59403;47.456;19.120;2024-03-06T01:48:56;100121.25;;;6.23;100.00
71567;BME280;59403;47.456;19.120;2024-03-06T01:51:23;100123.72;;;6.15;100.00
71567;BME280;59403;47.456;19.120;2024-03-06T01:53:50;100119.84;;;6.09;100.00
71567;BME280;59403;47.456;19.120;2024-03-06T01:56:16;100121.91;;;6.06;100.00
71567;BME280;59403;47.456;19.120;2024-03-06T01:58:45;100125.94;;;6.10;100.00
71567;BME280;59403;47.456;19.120;2024-03-06T02:03:49;100128.81;;;6.07;100.00
71567;BME280;59403;47.456;19.120;2024-03-06T02:06:15;100110.97;;;6.01;100.00
71567;BME280;59403;47.456;19.120;2024-03-06T02:08:44;100123.41;;;5.99;100.00
71567;BME280;59403;47.456;19.120;2024-03-06T02:11:11;100124.41;;;5.98;100.00
71567;BME280;59403;47.456;19.120;2024-03-06T02:13:39;100128.81;;;5.97;100.00
71567;BME280;59403;47.456;19.120;2024-03-06T02:16:07;100122.84;;;5.95;100.00
71567;BME280;59403;47.456;19.120;2024-03-06T02:18:33;100120.06;;;5.87;100.00
71567;BME280;59403;47.456;19.120;2024-03-06T02:21:02;100126.84;;;5.90;100.00
71567;BME280;59403;47.456;19.120;2024-03-06T02:23:30;100122.00;;;5.85;100.00
71567;BME280;59403;47.456;19.120;2024-03-06T02:25:56;100122.69;;;5.87;100.00
71567;BME280;59403;47.456;19.120;2024-03-06T02:28:23;100123.09;;;5.83;100.00
71567;BME280;59403;47.456;19.120;2024-03-06T02:30:50;100124.03;;;5.82;100.00
71567;BME280;59403;47.456;19.120;2024-03-06T02:33:17;100125.53;;;5.74;100.00
71567;BME280;59403;47.456;19.120;2024-03-06T02:35:44;100127.72;;;5.69;100.00
71567;BME280;59403;47.456;19.120;2024-03-06T02:38:12;100120.78;;;5.68;100.00
71567;BME280;59403;47.456;19.120;2024-03-06T02:40:39;100132.00;;;5.70;100.00
71567;BME280;59403;47.456;19.120;2024-03-06T02:43:06;100127.72;;;5.69;100.00
71567;BME280;59403;47.456;19.120;2024-03-06T02:45:32;100126.31;;;5.65;100.00
71567;BME280;59403;47.456;19.120;2024-03-06T02:47:59;100124.38;;;5.67;100.00
71567;BME280;59403;47.456;19.120;2024-03-06T02:50:26;100120.34;;;5.63;100.00
71567;BME280;59403;47.456;19.120;2024-03-06T02:52:52;100120.31;;;5.54;100.00
71567;BME280;59403;47.456;19.120;2024-03-06T02:55:22;100127.88;;;5.47;100.00
71567;BME280;59403;47.456;19.120;2024-03-06T02:57:49;100122.53;;;5.49;100.00
71567;BME280;59403;47.456;19.120;2024-03-06T03:00:16;100125.81;;;5.51;100.00
71567;BME280;59403;47.456;19.120;2024-03-06T03:02:43;100129.84;;;5.45;100.00
71567;BME280;59403;47.456;19.120;2024-03-06T03:05:09;100125.53;;;5.44;100.00
71567;BME280;59403;47.456;19.120;2024-03-06T03:07:36;100130.50;;;5.47;100.00
71567;BME280;59403;47.456;19.120;2024-03-06T03:10:03;100123.16;;;5.41;100.00
71567;BME280;59403;47.456;19.120;2024-03-06T03:12:32;100125.06;;;5.30;100.00
71567;BME280;59403;47.456;19.120;2024-03-06T03:14:59;100127.69;;;5.30;100.00
71567;BME280;59403;47.456;19.120;2024-03-06T03:17:26;100126.00;;;5.29;100.00
71567;BME280;59403;47.456;19.120;2024-03-06T03:19:52;100136.19;;;5.22;100.00
71567;BME280;59403;47.456;19.120;2024-03-06T03:22:19;100126.91;;;5.18;100.00
71567;BME280;59403;47.456;19.120;2024-03-06T03:24:46;100126.59;;;5.12;100.00
71567;BME280;59403;47.456;19.120;2024-03-06T03:27:13;100132.56;;;5.14;100.00
71567;BME280;59403;47.456;19.120;2024-03-06T03:29:41;100126.31;;;5.15;100.00
71567;BME280;59403;47.456;19.120;2024-03-06T03:32:07;100132.69;;;5.12;100.00
71567;BME280;59403;47.456;19.120;2024-03-06T03:34:34;100136.56;;;5.18;100.00
71567;BME280;59403;47.456;19.120;2024-03-06T03:37:01;100134.47;;;5.12;100.00
71567;BME280;59403;47.456;19.120;2024-03-06T03:39:27;100137.09;;;5.12;100.00
71567;BME280;59403;47.456;19.120;2024-03-06T03:41:54;100137.84;;;5.03;100.00
71567;BME280;59403;47.456;19.120;2024-03-06T03:44:21;100140.56;;;4.92;100.00
71567;BME280;59403;47.456;19.120;2024-03-06T03:46:49;100153.56;;;4.93;100.00
71567;BME280;59403;47.456;19.120;2024-03-06T03:49:16;100149.69;;;4.97;100.00
71567;BME280;59403;47.456;19.120;2024-03-06T03:51:42;100152.97;;;4.90;100.00
71567;BME280;59403;47.456;19.120;2024-03-06T03:54:09;100155.37;;;4.82;100.00
71567;BME280;59403;47.456;19.120;2024-03-06T03:56:36;100153.72;;;4.81;100.00
71567;BME280;59403;47.456;19.120;2024-03-06T03:59:03;100162.44;;;4.81;100.00
71567;BME280;59403;47.456;19.120;2024-03-06T04:01:29;100154.22;;;4.75;100.00
71567;BME280;59403;47.456;19.120;2024-03-06T04:03:57;100164.34;;;4.79;100.00
71567;BME280;59403;47.456;19.120;2024-03-06T04:06:24;100165.16;;;4.80;100.00
71567;BME280;59403;47.456;19.120;2024-03-06T04:08:50;100161.72;;;4.79;100.00
71567;BME280;59403;47.456;19.120;2024-03-06T04:11:17;100165.16;;;4.80;100.00
71567;BME280;59403;47.456;19.120;2024-03-06T04:13:44;100165.69;;;4.74;100.00
71567;BME280;59403;47.456;19.120;2024-03-06T04:16:15;100165.53;;;4.75;100.00
71567;BME280;59403;47.456;19.120;2024-03-06T04:18:42;100169.94;;;4.75;100.00
71567;BME280;59403;47.456;19.120;2024-03-06T04:21:10;100176.28;;;4.72;100.00
71567;BME280;59403;47.456;19.120;2024-03-06T04:23:37;100172.97;;;4.70;100.00
71567;BME280;59403;47.456;19.120;2024-03-06T04:26:03;100175.84;;;4.67;100.00
71567;BME280;59403;47.456;19.120;2024-03-06T04:28:31;100177.75;;;4.65;100.00
71567;BME280;59403;47.456;19.120;2024-03-06T04:30:58;100172.50;;;4.65;100.00
71567;BME280;59403;47.456;19.120;2024-03-06T04:33:24;100178.59;;;4.66;100.00
71567;BME280;59403;47.456;19.120;2024-03-06T04:35:51;100176.78;;;4.66;100.00
71567;BME280;59403;47.456;19.120;2024-03-06T04:38:19;100183.25;;;4.62;100.00
71567;BME280;59403;47.456;19.120;2024-03-06T04:40:46;100187.53;;;4.63;100.00
71567;BME280;59403;47.456;19.120;2024-03-06T04:43:13;100188.00;;;4.57;100.00
71567;BME280;59403;47.456;19.120;2024-03-06T04:45:39;100183.75;;;4.56;100.00
71567;BME280;59403;47.456;19.120;2024-03-06T04:48:07;100186.34;;;4.56;100.00
71567;BME280;59403;47.456;19.120;2024-03-06T04:50:33;100194.72;;;4.50;100.00
71567;BME280;59403;47.456;19.120;2024-03-06T04:53:00;100192.34;;;4.47;100.00
71567;BME280;59403;47.456;19.120;2024-03-06T04:55:28;100202.38;;;4.42;100.00
71567;BME280;59403;47.456;19.120;2024-03-06T04:57:56;100201.31;;;4.44;100.00
71567;BME280;59403;47.456;19.120;2024-03-06T05:00:22;100200.72;;;4.41;100.00
71567;BME280;59403;47.456;19.120;2024-03-06T05:02:49;100203.34;;;4.41;100.00
71567;BME280;59403;47.456;19.120;2024-03-06T05:05:16;100208.56;;;4.41;100.00
71567;BME280;59403;47.456;19.120;2024-03-06T05:07:43;100209.28;;;4.43;100.00
71567;BME280;59403;47.456;19.120;2024-03-06T05:10:09;100205.81;;;4.42;100.00
71567;BME280;59403;47.456;19.120;2024-03-06T05:12:38;100211.06;;;4.42;100.00
71567;BME280;59403;47.456;19.120;2024-03-06T05:15:05;100204.13;;;4.41;100.00
71567;BME280;59403;47.456;19.120;2024-03-06T05:17:33;100212.25;;;4.38;100.00
71567;BME280;59403;47.456;19.120;2024-03-06T05:20:00;100208.47;;;4.31;100.00
71567;BME280;59403;47.456;19.120;2024-03-06T05:22:29;100203.72;;;4.25;100.00
71567;BME280;59403;47.456;19.120;2024-03-06T05:24:55;100205.00;;;4.31;100.00
71567;BME280;59403;47.456;19.120;2024-03-06T05:27:23;100205.12;;;4.29;100.00
71567;BME280;59403;47.456;19.120;2024-03-06T05:29:51;100205.12;;;4.29;100.00
71567;BME280;59403;47.456;19.120;2024-03-06T05:32:18;100203.22;;;4.31;100.00
71567;BME280;59403;47.456;19.120;2024-03-06T05:34:45;100179.66;;;4.20;100.00
71567;BME280;59403;47.456;19.120;2024-03-06T05:37:11;100208.12;;;4.36;100.00
71567;BME280;59403;47.456;19.120;2024-03-06T05:39:38;100213.56;;;4.44;100.00
71567;BME280;59403;47.456;19.120;2024-03-06T05:42:05;100211.78;;;4.44;100.00
71567;BME280;59403;47.456;19.120;2024-03-06T05:44:32;100210.59;;;4.37;100.00
71567;BME280;59403;47.456;19.120;2024-03-06T05:47:01;100212.72;;;4.43;100.00
71567;BME280;59403;47.456;19.120;2024-03-06T05:49:28;100216.66;;;4.49;100.00
71567;BME280;59403;47.456;19.120;2024-03-06T05:51:55;100218.06;;;4.53;100.00
71567;BME280;59403;47.456;19.120;2024-03-06T05:54:22;100215.72;;;4.50;100.00
71567;BME280;59403;47.456;19.120;2024-03-06T05:56:50;100216.19;;;4.44;100.00
71567;BME280;59403;47.456;19.120;2024-03-06T05:59:19;100213.69;;;4.42;100.00
71567;BME280;59403;47.456;19.120;2024-03-06T06:01:45;100218.56;;;4.47;100.00
71567;BME280;59403;47.456;19.120;2024-03-06T06:04:14;100220.56;;;4.54;100.00
71567;BME280;59403;47.456;19.120;2024-03-06T06:06:40;100226.28;;;4.59;100.00
71567;BME280;59403;47.456;19.120;2024-03-06T06:09:07;100220.19;;;4.59;100.00
71567;BME280;59403;47.456;19.120;2024-03-06T06:11:38;100230.19;;;4.65;100.00
71567;BME280;59403;47.456;19.120;2024-03-06T06:14:04;100223.75;;;4.69;100.00
71567;BME280;59403;47.456;19.120;2024-03-06T06:16:35;100231.25;;;4.74;100.00
71567;BME280;59403;47.456;19.120;2024-03-06T06:19:01;100221.34;;;4.77;100.00
71567;BME280;59403;47.456;19.120;2024-03-06T06:21:30;100238.38;;;4.83;100.00
71567;BME280;59403;47.456;19.120;2024-03-06T06:23:57;100235.81;;;4.92;100.00
71567;BME280;59403;47.456;19.120;2024-03-06T06:26:23;100235.34;;;4.98;100.00
71567;BME280;59403;47.456;19.120;2024-03-06T06:28:50;100228.75;;;5.04;100.00
71567;BME280;59403;47.456;19.120;2024-03-06T06:31:16;100233.00;;;5.16;100.00
71567;BME280;59403;47.456;19.120;2024-03-06T06:33:43;100240.09;;;5.25;100.00
71567;BME280;59403;47.456;19.120;2024-03-06T06:36:11;100237.22;;;5.28;100.00
71567;BME280;59403;47.456;19.120;2024-03-06T06:38:39;100242.53;;;5.37;100.00
71567;BME280;59403;47.456;19.120;2024-03-06T06:41:05;100235.69;;;5.46;100.00
71567;BME280;59403;47.456;19.120;2024-03-06T06:43:32;100240.03;;;5.56;100.00
71567;BME280;59403;47.456;19.120;2024-03-06T06:45:59;100239.84;;;5.69;100.00
71567;BME280;59403;47.456;19.120;2024-03-06T06:48:26;100239.06;;;5.78;100.00
71567;BME280;59403;47.456;19.120;2024-03-06T06:50:53;100239.19;;;5.97;100.00
71567;BME280;59403;47.456;19.120;2024-03-06T06:53:20;100245.47;;;6.15;100.00
71567;BME280;59403;47.456;19.120;2024-03-06T06:55:47;100246.75;;;6.21;100.00
71567;BME280;59403;47.456;19.120;2024-03-06T06:58:14;100247.59;;;6.31;100.00
71567;BME280;59403;47.456;19.120;2024-03-06T07:00:41;100254.69;;;6.40;100.00
71567;BME280;59403;47.456;19.120;2024-03-06T07:03:08;100256.81;;;6.46;100.00
71567;BME280;59403;47.456;19.120;2024-03-06T07:05:34;100250.63;;;6.56;100.00
71567;BME280;59403;47.456;19.120;2024-03-06T07:08:01;100254.94;;;6.67;100.00
71567;BME280;59403;47.456;19.120;2024-03-06T07:10:27;100259.25;;;6.77;100.00
71567;BME280;59403;47.456;19.120;2024-03-06T07:12:58;100253.97;;;6.87;100.00
71567;BME280;59403;47.456;19.120;2024-03-06T07:15:24;100255.78;;;6.96;100.00
71567;BME280;59403;47.456;19.120;2024-03-06T07:17:52;100255.69;;;7.07;100.00
71567;BME280;59403;47.456;19.120;2024-03-06T07:20:18;100251.63;;;7.13;100.00
71567;BME280;59403;47.456;19.120;2024-03-06T07:22:45;100245.53;;;7.22;100.00
71567;BME280;59403;47.456;19.120;2024-03-06T07:25:12;100249.12;;;7.30;100.00
71567;BME280;59403;47.456;19.120;2024-03-06T07:27:38;100255.09;;;7.42;100.00
71567;BME280;59403;47.456;19.120;2024-03-06T07:30:08;100258.56;;;7.42;100.00
71567;BME280;59403;47.456;19.120;2024-03-06T07:32:36;100253.69;;;7.47;100.00
71567;BME280;59403;47.456;19.120;2024-03-06T07:35:03;100254.94;;;7.53;100.00
71567;BME280;59403;47.456;19.120;2024-03-06T07:37:31;100255.88;;;7.61;100.00
71567;BME280;59403;47.456;19.120;2024-03-06T07:39:59;100269.06;;;7.71;100.00
71567;BME280;59403;47.456;19.120;2024-03-06T07:42:25;100270.56;;;7.73;100.00
71567;BME280;59403;47.456;19.120;2024-03-06T07:44:52;100268.06;;;7.81;100.00
71567;BME280;59403;47.456;19.120;2024-03-06T07:47:21;100269.03;;;7.90;100.00
71567;BME280;59403;47.456;19.120;2024-03-06T07:49:47;100267.63;;;7.95;100.00
71567;BME280;59403;47.456;19.120;2024-03-06T07:52:15;100267.56;;;8.05;100.00
71567;BME280;59403;47.456;19.120;2024-03-06T07:54:42;100261.06;;;8.09;100.00
71567;BME280;59403;47.456;19.120;2024-03-06T07:57:09;100272.09;;;8.22;100.00
71567;BME280;59403;47.456;19.120;2024-03-06T07:59:36;100269.47;;;8.32;100.00
71567;BME280;59403;47.456;19.120;2024-03-06T08:02:02;100267.91;;;8.39;100.00
71567;BME280;59403;47.456;19.120;2024-03-06T08:04:31;100272.41;;;8.56;100.00
71567;BME280;59403;47.456;19.120;2024-03-06T08:06:58;100268.72;;;8.66;100.00
71567;BME280;59403;47.456;19.120;2024-03-06T08:09:24;100274.78;;;8.76;100.00
71567;BME280;59403;47.456;19.120;2024-03-06T08:11:53;100269.62;;;8.75;100.00
71567;BME280;59403;47.456;19.120;2024-03-06T08:14:20;100278.63;;;8.82;100.00
71567;BME280;59403;47.456;19.120;2024-03-06T08:16:47;100283.94;;;8.99;100.00
71567;BME280;59403;47.456;19.120;2024-03-06T08:19:14;100286.12;;;9.04;100.00
71567;BME280;59403;47.456;19.120;2024-03-06T08:21:42;100284.09;;;9.15;100.00
71567;BME280;59403;47.456;19.120;2024-03-06T08:24:08;100285.06;;;9.32;100.00
71567;BME280;59403;47.456;19.120;2024-03-06T08:26:36;100278.66;;;9.35;99.46
71567;BME280;59403;47.456;19.120;2024-03-06T08:29:03;100281.84;;;9.38;100.00
71567;BME280;59403;47.456;19.120;2024-03-06T08:31:29;100275.03;;;9.53;100.00
71567;BME280;59403;47.456;19.120;2024-03-06T08:33:56;100276.22;;;9.59;100.00
71567;BME280;59403;47.456;19.120;2024-03-06T08:36:23;100280.63;;;9.50;100.00
71567;BME280;59403;47.456;19.120;2024-03-06T08:38:51;100279.16;;;9.56;100.00
71567;BME280;59403;47.456;19.120;2024-03-06T08:41:18;100281.50;;;9.59;97.42
71567;BME280;59403;47.456;19.120;2024-03-06T08:43:45;100285.06;;;9.67;96.75
71567;BME280;59403;47.456;19.120;2024-03-06T08:46:12;100280.87;;;9.65;96.63
71567;BME280;59403;47.456;19.120;2024-03-06T08:48:38;100282.78;;;9.72;95.53
71567;BME280;59403;47.456;19.120;2024-03-06T08:51:05;100289.88;;;9.72;94.67
71567;BME280;59403;47.456;19.120;2024-03-06T08:53:36;100283.28;;;9.76;95.54
71567;BME280;59403;47.456;19.120;2024-03-06T08:56:04;100280.78;;;9.92;95.29
71567;BME280;59403;47.456;19.120;2024-03-06T08:58:31;100291.47;;;9.90;94.42
71567;BME280;59403;47.456;19.120;2024-03-06T09:00:58;100278.31;;;9.98;95.26
71567;BME280;59403;47.456;19.120;2024-03-06T09:03:25;100281.31;;;10.03;94.29
71567;BME280;59403;47.456;19.120;2024-03-06T09:05:51;100280.78;;;10.17;93.70
71567;BME280;59403;47.456;19.120;2024-03-06T09:08:19;100289.69;;;10.42;91.40
71567;BME280;59403;47.456;19.120;2024-03-06T09:10:46;100290.91;;;10.56;91.76
71567;BME280;59403;47.456;19.120;2024-03-06T09:13:14;100283.47;;;10.59;91.35
71567;BME280;59403;47.456;19.120;2024-03-06T09:15:40;100287.06;;;10.50;88.87
71567;BME280;59403;47.456;19.120;2024-03-06T09:18:07;100289.69;;;10.84;88.47
71567;BME280;59403;47.456;19.120;2024-03-06T09:20:33;100284.72;;;10.97;88.81
71567;BME280;59403;47.456;19.120;2024-03-06T09:23:00;100291.87;;;11.12;88.22
71567;BME280;59403;47.456;19.120;2024-03-06T09:25:27;100287.75;;;11.18;86.50
71567;BME280;59403;47.456;19.120;2024-03-06T09:27:54;100284.63;;;11.30;87.19
71567;BME280;59403;47.456;19.120;2024-03-06T09:30:22;100280.66;;;11.42;86.69
71567;BME280;59403;47.456;19.120;2024-03-06T09:32:48;100279.16;;;11.56;85.61
71567;BME280;59403;47.456;19.120;2024-03-06T09:35:15;100277.84;;;11.60;84.43
71567;BME280;59403;47.456;19.120;2024-03-06T09:37:42;100273.88;;;11.80;84.48
71567;BME280;59403;47.456;19.120;2024-03-06T09:40:19;100275.84;;;11.94;82.57
71567;BME280;59403;47.456;19.120;2024-03-06T09:42:48;100265.06;;;12.04;81.34
71567;BME280;59403;47.456;19.120;2024-03-06T09:45:14;100269.81;;;12.16;81.33
71567;BME280;59403;47.456;19.120;2024-03-06T09:47:43;100265.47;;;12.31;80.36
71567;BME280;59403;47.456;19.120;2024-03-06T09:50:10;100260.03;;;12.64;79.71
71567;BME280;59403;47.456;19.120;2024-03-06T09:52:39;100264.91;;;12.83;79.12
71567;BME280;59403;47.456;19.120;2024-03-06T09:55:11;100266.59;;;12.76;77.31
71567;BME280;59403;47.456;19.120;2024-03-06T09:57:40;100269.12;;;13.00;77.46
71567;BME280;59403;47.456;19.120;2024-03-06T10:00:07;100265.66;;;12.99;77.53
71567;BME280;59403;47.456;19.120;2024-03-06T10:02:38;100261.84;;;13.02;77.35
71567;BME280;59403;47.456;19.120;2024-03-06T10:05:20;100265.75;;;13.14;75.81
71567;BME280;59403;47.456;19.120;2024-03-06T10:07:47;100258.25;;;12.87;76.75
71567;BME280;59403;47.456;19.120;2024-03-06T10:10:14;100263.81;;;13.00;77.63
71567;BME280;59403;47.456;19.120;2024-03-06T10:12:41;100255.81;;;13.00;76.48
71567;BME280;59403;47.456;19.120;2024-03-06T10:15:09;100260.97;;;13.09;76.63
71567;BME280;59403;47.456;19.120;2024-03-06T10:17:37;100259.91;;;13.18;76.41
71567;BME280;59403;47.456;19.120;2024-03-06T10:20:17;100258.84;;;13.05;76.30
71567;BME280;59403;47.456;19.120;2024-03-06T10:22:46;100258.78;;;13.13;75.70
71567;BME280;59403;47.456;19.120;2024-03-06T10:25:13;100266.31;;;13.01;77.28
71567;BME280;59403;47.456;19.120;2024-03-06T10:27:40;100261.84;;;13.02;75.28
71567;BME280;59403;47.456;19.120;2024-03-06T10:30:07;100261.66;;;13.03;77.00
71567;BME280;59403;47.456;19.120;2024-03-06T10:32:36;100263.63;;;13.09;76.78
71567;BME280;59403;47.456;19.120;2024-03-06T10:35:04;100255.06;;;12.91;76.33
71567;BME280;59403;47.456;19.120;2024-03-06T10:37:33;100253.69;;;13.03;74.23
71567;BME280;59403;47.456;19.120;2024-03-06T10:40:02;100253.28;;;13.37;74.34
71567;BME280;59403;47.456;19.120;2024-03-06T10:42:32;100252.59;;;13.43;73.90
71567;BME280;59403;47.456;19.120;2024-03-06T10:44:59;100247.19;;;13.28;74.47
71567;BME280;59403;47.456;19.120;2024-03-06T10:47:28;100243.50;;;13.15;75.34
71567;BME280;59403;47.456;19.120;2024-03-06T10:49:55;100243.06;;;12.95;76.86
71567;BME280;59403;47.456;19.120;2024-03-06T10:52:27;100242.91;;;13.05;76.35
71567;BME280;59403;47.456;19.120;2024-03-06T10:54:58;100236.50;;;13.14;73.99
71567;BME280;59403;47.456;19.120;2024-03-06T10:57:25;100234.84;;;13.13;72.57
71567;BME280;59403;47.456;19.120;2024-03-06T10:59:53;100227.81;;;13.20;73.70
71567;BME280;59403;47.456;19.120;2024-03-06T11:02:20;100229.72;;;13.34;75.64
71567;BME280;59403;47.456;19.120;2024-03-06T11:04:49;100225.66;;;13.38;75.62
71567;BME280;59403;47.456;19.120;2024-03-06T11:07:17;100218.62;;;13.45;74.11
71567;BME280;59403;47.456;19.120;2024-03-06T11:09:43;100221.06;;;13.54;74.70
71567;BME280;59403;47.456;19.120;2024-03-06T11:12:32;100219.31;;;13.61;74.99
71567;BME280;59403;47.456;19.120;2024-03-06T11:14:59;100209.38;;;13.55;74.27
71567;BME280;59403;47.456;19.120;2024-03-06T11:17:26;100210.78;;;13.51;75.90
71567;BME280;59403;47.456;19.120;2024-03-06T11:20:13;100212.31;;;13.46;74.41
71567;BME280;59403;47.456;19.120;2024-03-06T11:23:02;100203.50;;;13.45;74.52
71567;BME280;59403;47.456;19.120;2024-03-06T11:25:56;100199.69;;;13.25;72.92
71567;BME280;59403;47.456;19.120;2024-03-06T11:28:26;100191.16;;;13.30;72.53
71567;BME280;59403;47.456;19.120;2024-03-06T11:30:56;100195.41;;;13.39;73.04
71567;BME280;59403;47.456;19.120;2024-03-06T11:33:27;100192.38;;;13.79;71.80
71567;BME280;59403;47.456;19.120;2024-03-06T11:36:15;100188.97;;;13.85;72.80
71567;BME280;59403;47.456;19.120;2024-03-06T11:38:42;100184.38;;;13.79;71.95
71567;BME280;59403;47.456;19.120;2024-03-06T11:41:09;100190.53;;;13.94;70.81
71567;BME280;59403;47.456;19.120;2024-03-06T11:43:43;100181.53;;;13.81;70.97
71567;BME280;59403;47.456;19.120;2024-03-06T11:46:10;100180.78;;;13.87;72.16
71567;BME280;59403;47.456;19.120;2024-03-06T11:48:37;100182.53;;;13.80;71.07
71567;BME280;59403;47.456;19.120;2024-03-06T11:51:04;100175.53;;;13.64;71.20
71567;BME280;59403;47.456;19.120;2024-03-06T11:53:32;100177.84;;;13.67;71.60
71567;BME280;59403;47.456;19.120;2024-03-06T11:55:59;100179.13;;;13.56;71.30
71567;BME280;59403;47.456;19.120;2024-03-06T11:58:26;100178.75;;;13.59;71.31
71567;BME280;59403;47.456;19.120;2024-03-06T12:00:54;100176.53;;;13.48;72.94
71567;BME280;59403;47.456;19.120;2024-03-06T12:03:22;100174.06;;;13.47;73.24
71567;BME280;59403;47.456;19.120;2024-03-06T12:05:50;100178.63;;;13.38;72.80
71567;BME280;59403;47.456;19.120;2024-03-06T12:08:18;100170.66;;;13.38;73.76
71567;BME280;59403;47.456;19.120;2024-03-06T12:10:46;100169.47;;;13.41;75.45
71567;BME280;59403;47.456;19.120;2024-03-06T12:13:12;100169.34;;;13.34;74.59
71567;BME280;59403;47.456;19.120;2024-03-06T12:15:42;100169.47;;;13.41;73.64
71567;BME280;59403;47.456;19.120;2024-03-06T12:18:10;100162.41;;;13.48;71.72
71567;BME280;59403;47.456;19.120;2024-03-06T12:20:41;100163.97;;;13.57;72.03
71567;BME280;59403;47.456;19.120;2024-03-06T12:23:19;100165.72;;;13.64;71.87
71567;BME280;59403;47.456;19.120;2024-03-06T12:25:46;100161.53;;;13.70;71.02
71567;BME280;59403;47.456;19.120;2024-03-06T12:28:12;100171.97;;;13.72;70.32
71567;BME280;59403;47.456;19.120;2024-03-06T12:30:41;100159.75;;;13.62;71.37
71567;BME280;59403;47.456;19.120;2024-03-06T12:33:09;100159.28;;;13.59;72.40
71567;BME280;59403;47.456;19.120;2024-03-06T12:35:40;100158.50;;;13.58;72.15
71567;BME280;59403;47.456;19.120;2024-03-06T12:38:11;100155.97;;;13.57;71.99
71567;BME280;59403;47.456;19.120;2024-03-06T12:40:39;100155.53;;;13.53;71.45
71567;BME280;59403;47.456;19.120;2024-03-06T12:43:05;100149.31;;;13.46;71.99
71567;BME280;59403;47.456;19.120;2024-03-06T12:45:32;100151.66;;;13.41;70.99